Time;durP1;ratioP1;P1;durP2;ratioP2;P2;SDS_P1;SDS_P2;PMS_P1;PMS_P2;Temp;Humidity;BMP_temperature;BMP_pressure;BME280_temperature;BME280_humidity;BME280_pressure;Samples;Min_cycle;Max_cycle;Signal;HPM_P1;HPM_P2
2023/08/25 00:02:24;;;;;;;10.52;7.20;;;21.90;95.20;;;;;;5080807;28;20028;-77
2023/08/25 00:04:50;;;;;;;10.57;7.15;;;21.90;95.20;;;;;;5097487;28;20091;-77
2023/08/25 00:07:16;;;;;;;8.93;6.88;;;21.90;95.10;;;;;;5114265;28;20106;-77
2023/08/25 00:09:44;;;;;;;12.38;7.13;;;21.90;94.90;;;;;;5080633;28;20058;-77
2023/08/25 00:12:10;;;;;;;10.30;6.40;;;21.90;94.80;;;;;;5114231;28;20092;-77
2023/08/25 00:14:36;;;;;;;12.23;7.55;;;21.90;94.80;;;;;;5097179;28;20468;-76
2023/08/25 00:17:03;;;;;;;10.73;7.53;;;21.90;94.80;;;;;;5113927;28;20039;-77
2023/08/25 00:19:28;;;;;;;9.13;6.78;;;21.90;94.70;;;;;;5113987;28;20028;-76
2023/08/25 00:21:54;;;;;;;12.70;7.63;;;21.90;94.60;;;;;;5080364;28;20031;-76
2023/08/25 00:24:20;;;;;;;9.80;7.30;;;21.90;94.70;;;;;;5096958;28;20031;-77
2023/08/25 00:26:45;;;;;;;11.10;7.63;;;21.90;94.60;;;;;;5096966;28;20046;-76
2023/08/25 00:29:11;;;;;;;11.38;7.10;;;21.80;94.60;;;;;;5080307;28;20028;-76
2023/08/25 00:31:38;;;;;;;12.65;7.60;;;21.80;94.60;;;;;;5080249;28;20024;-77
2023/08/25 00:34:04;;;;;;;10.02;7.00;;;21.80;94.50;;;;;;5113810;28;20115;-77
2023/08/25 00:36:30;;;;;;;9.25;6.57;;;21.70;94.60;;;;;;5113729;28;20028;-76
2023/08/25 00:38:56;;;;;;;7.60;6.07;;;21.70;94.50;;;;;;5113666;28;20055;-76
2023/08/25 00:41:22;;;;;;;9.13;6.40;;;21.70;94.40;;;;;;5113573;28;20032;-76
2023/08/25 00:43:47;;;;;;;11.38;6.32;;;21.70;94.20;;;;;;5096590;28;20020;-76
2023/08/25 00:46:13;;;;;;;8.68;6.10;;;21.70;94.20;;;;;;5096782;28;20032;-77
2023/08/25 00:48:40;;;;;;;8.50;6.05;;;21.70;94.30;;;;;;5096543;28;20028;-76
2023/08/25 00:51:08;;;;;;;7.35;6.03;;;21.70;94.60;;;;;;5096556;28;20035;-77
2023/08/25 00:53:35;;;;;;;9.15;6.13;;;21.70;94.20;;;;;;5130553;28;20076;-77
2023/08/25 00:56:02;;;;;;;9.48;6.80;;;21.70;94.20;;;;;;5096592;28;20039;-77
2023/08/25 00:58:27;;;;;;;10.32;6.68;;;21.70;94.10;;;;;;5113305;28;20024;-76
2023/08/25 01:00:54;;;;;;;9.00;5.88;;;21.70;94.00;;;;;;5113443;28;20032;-77
2023/08/25 01:03:21;;;;;;;7.50;5.80;;;21.60;94.10;;;;;;5096384;28;20049;-77
2023/08/25 01:05:48;;;;;;;7.72;5.75;;;21.60;94.00;;;;;;5096312;28;20031;-77
2023/08/25 01:08:16;;;;;;;7.65;5.57;;;21.50;94.00;;;;;;5114188;28;20032;-76
2023/08/25 01:10:54;;;;;;;9.57;5.25;;;21.50;93.80;;;;;;5130117;28;20028;-77
2023/08/25 01:13:31;;;;;;;7.60;5.22;;;21.40;93.60;;;;;;5114071;28;20020;-77
2023/08/25 01:15:58;;;;;;;5.30;4.32;;;21.30;93.90;;;;;;5112973;28;20047;-76
2023/08/25 01:18:33;;;;;;;5.93;4.45;;;21.30;94.00;;;;;;5112870;28;20402;-76
2023/08/25 01:21:00;;;;;;;11.80;5.32;;;21.30;93.80;;;;;;5130106;28;20044;-76
2023/08/25 01:23:25;;;;;;;4.72;4.20;;;21.20;93.60;;;;;;5112904;28;20024;-76
2023/08/25 01:25:53;;;;;;;5.13;4.20;;;21.10;93.70;;;;;;5113876;28;20027;-76
2023/08/25 01:28:22;;;;;;;6.00;4.72;;;21.10;94.00;;;;;;5112962;28;20032;-77
2023/08/25 01:30:49;;;;;;;5.45;4.30;;;21.10;94.20;;;;;;5112431;28;20076;-77
2023/08/25 01:33:15;;;;;;;6.47;4.32;;;21.10;94.00;;;;;;5098144;28;20047;-77
2023/08/25 01:35:50;;;;;;;6.25;5.03;;;21.10;93.90;;;;;;5116055;28;20024;-76
2023/08/25 01:38:36;;;;;;;7.95;5.10;;;21.10;93.60;;;;;;5134168;28;20023;-76
2023/08/25 01:41:10;;;;;;;6.28;4.78;;;21.00;93.70;;;;;;5134284;28;20034;-76
2023/08/25 01:43:39;;;;;;;5.65;4.05;;;21.00;93.90;;;;;;5134080;28;20023;-76
2023/08/25 01:46:09;;;;;;;7.35;4.95;;;21.00;94.10;;;;;;5116147;28;20054;-77
2023/08/25 01:48:37;;;;;;;6.53;4.97;;;20.90;94.00;;;;;;5116235;28;20047;-76
2023/08/25 01:51:02;;;;;;;8.45;5.40;;;21.00;94.10;;;;;;5116066;28;20020;-77
2023/08/25 01:53:28;;;;;;;6.00;4.80;;;21.00;94.00;;;;;;5099088;28;20376;-77
2023/08/25 01:55:54;;;;;;;7.93;5.30;;;21.00;93.90;;;;;;5115925;28;20028;-77
2023/08/25 01:58:20;;;;;;;6.28;4.90;;;20.90;94.00;;;;;;5099199;28;20079;-77
2023/08/25 02:00:45;;;;;;;6.88;5.00;;;21.00;94.10;;;;;;5116045;28;20024;-77
2023/08/25 02:03:13;;;;;;;7.57;5.50;;;21.00;94.00;;;;;;5082159;28;20016;-76
2023/08/25 02:05:42;;;;;;;6.57;5.22;;;21.00;94.00;;;;;;5133830;28;20012;-76
2023/08/25 02:08:08;;;;;;;6.65;5.30;;;21.00;94.00;;;;;;5116345;28;20478;-76
2023/08/25 02:10:34;;;;;;;8.13;5.20;;;21.00;94.00;;;;;;5082240;28;20066;-76
2023/08/25 02:12:59;;;;;;;7.38;5.60;;;21.00;94.20;;;;;;5099002;28;20039;-76
2023/08/25 02:15:25;;;;;;;7.05;5.55;;;21.00;94.10;;;;;;5133807;28;20091;-77
2023/08/25 02:17:51;;;;;;;7.28;6.05;;;21.00;94.10;;;;;;5115735;28;20032;-77
2023/08/25 02:20:16;;;;;;;8.10;5.70;;;21.00;94.10;;;;;;5099059;28;20094;-77
2023/08/25 02:22:42;;;;;;;7.60;5.53;;;21.00;94.10;;;;;;5098812;28;20020;-76
2023/08/25 02:25:08;;;;;;;8.38;6.22;;;21.00;94.10;;;;;;5115792;28;20077;-76
2023/08/25 02:27:34;;;;;;;8.27;6.10;;;21.00;94.10;;;;;;5115579;28;20023;-77
2023/08/25 02:29:59;;;;;;;8.98;6.40;;;21.00;94.20;;;;;;5098831;28;20022;-76
2023/08/25 02:32:25;;;;;;;9.27;6.78;;;21.00;94.20;;;;;;5098687;28;20461;-77
2023/08/25 02:34:51;;;;;;;9.88;6.88;;;21.10;94.30;;;;;;5115349;28;20054;-75
2023/08/25 02:37:16;;;;;;;11.15;8.15;;;21.10;94.30;;;;;;5098651;28;20036;-77
2023/08/25 02:39:42;;;;;;;11.40;7.50;;;21.10;94.60;;;;;;5115664;28;20023;-77
2023/08/25 02:42:07;;;;;;;10.73;7.82;;;21.10;94.30;;;;;;5134991;28;20513;-76
2023/08/25 02:44:33;;;;;;;11.80;7.50;;;21.00;94.40;;;;;;5102337;28;20031;-77
2023/08/25 02:46:59;;;;;;;9.95;7.35;;;21.00;94.60;;;;;;5119446;28;20042;-77
2023/08/25 02:49:24;;;;;;;8.80;6.80;;;21.00;94.60;;;;;;5119422;28;20024;-76
2023/08/25 02:51:50;;;;;;;10.23;7.22;;;21.10;94.60;;;;;;5119320;28;20027;-77
2023/08/25 02:54:16;;;;;;;10.32;7.43;;;21.10;94.60;;;;;;5102357;28;20035;-76
2023/08/25 02:56:41;;;;;;;9.57;7.28;;;21.10;94.60;;;;;;5137040;28;20160;-77
2023/08/25 02:59:07;;;;;;;8.90;7.18;;;21.20;94.60;;;;;;5102071;28;20037;-77
2023/08/25 03:01:33;;;;;;;11.85;8.00;;;21.20;94.60;;;;;;5102229;28;20083;-76
2023/08/25 03:03:58;;;;;;;9.30;7.15;;;21.20;94.60;;;;;;5102209;28;20040;-77
2023/08/25 03:06:24;;;;;;;11.80;7.97;;;21.20;94.60;;;;;;5101930;28;20028;-77
2023/08/25 03:08:50;;;;;;;12.15;8.02;;;21.20;94.70;;;;;;5136935;28;20020;-76
2023/08/25 03:11:15;;;;;;;11.23;7.93;;;21.10;94.80;;;;;;5118983;28;20032;-76
2023/08/25 03:13:41;;;;;;;11.77;8.23;;;21.10;95.00;;;;;;5085226;28;20015;-77
2023/08/25 03:16:07;;;;;;;10.07;7.30;;;21.10;95.00;;;;;;5118835;28;20034;-77
2023/08/25 03:18:33;;;;;;;11.70;8.02;;;21.10;95.10;;;;;;5101622;28;20034;-77
2023/08/25 03:20:59;;;;;;;10.68;8.05;;;21.20;95.00;;;;;;5118795;28;20039;-76
2023/08/25 03:23:25;;;;;;;11.00;7.75;;;21.20;95.00;;;;;;5101707;28;20035;-77
2023/08/25 03:25:51;;;;;;;10.02;7.82;;;21.20;95.00;;;;;;5101596;28;20065;-77
2023/08/25 03:28:17;;;;;;;9.68;7.43;;;21.20;95.10;;;;;;5118449;28;20028;-77
2023/08/25 03:30:42;;;;;;;11.23;8.23;;;21.20;95.00;;;;;;5118423;28;20028;-76
2023/08/25 03:33:08;;;;;;;14.02;9.00;;;21.20;95.00;;;;;;5084739;28;20038;-76
2023/08/25 03:35:37;;;;;;;10.90;8.32;;;21.30;95.00;;;;;;5101169;28;20056;-76
2023/08/25 03:38:04;;;;;;;11.20;7.88;;;21.30;95.00;;;;;;5118235;28;20028;-76
2023/08/25 03:40:30;;;;;;;11.55;8.30;;;21.30;95.00;;;;;;5101567;28;20028;-77
2023/08/25 03:42:56;;;;;;;10.88;7.43;;;21.30;95.00;;;;;;5136267;28;20036;-76
2023/08/25 03:45:22;;;;;;;13.02;8.82;;;21.30;95.10;;;;;;5118246;28;20038;-77
2023/08/25 03:47:47;;;;;;;13.25;8.18;;;21.30;95.50;;;;;;5101228;28;20050;-77
2023/08/25 03:50:13;;;;;;;10.82;8.63;;;21.20;95.20;;;;;;5101271;28;20032;-76
2023/08/25 03:52:39;;;;;;;16.98;9.60;;;21.20;95.30;;;;;;5100799;28;20096;-76
2023/08/25 03:55:04;;;;;;;14.40;9.45;;;21.30;95.40;;;;;;5117961;28;20386;-77
2023/08/25 03:57:30;;;;;;;14.02;9.63;;;21.30;95.30;;;;;;5101024;28;20032;-77
2023/08/25 03:59:56;;;;;;;18.58;11.10;;;21.30;95.40;;;;;;5117849;28;20054;-77
2023/08/25 04:02:21;;;;;;;15.70;10.13;;;21.30;95.20;;;;;;5117974;28;20079;-76
2023/08/25 04:04:47;;;;;;;15.50;10.23;;;21.30;95.20;;;;;;5135850;28;20027;-77
2023/08/25 04:07:13;;;;;;;13.85;9.70;;;21.20;95.40;;;;;;5135750;28;20034;-76
2023/08/25 04:09:39;;;;;;;16.02;9.52;;;21.10;95.60;;;;;;5117870;28;20036;-76
2023/08/25 04:12:05;;;;;;;15.40;10.68;;;21.10;95.60;;;;;;5100719;28;20049;-76
2023/08/25 04:14:30;;;;;;;13.77;9.68;;;21.00;95.70;;;;;;5117519;28;20061;-77
2023/08/25 04:16:56;;;;;;;18.13;11.07;;;21.00;95.80;;;;;;5100579;28;20036;-77
2023/08/25 04:19:22;;;;;;;17.48;11.15;;;21.00;95.90;;;;;;5135618;28;20047;-76
2023/08/25 04:21:48;;;;;;;15.30;11.00;;;21.00;95.90;;;;;;5117561;28;20047;-77
2023/08/25 04:24:15;;;;;;;17.45;11.82;;;21.00;95.90;;;;;;5117743;28;20031;-76
2023/08/25 04:26:41;;;;;;;16.42;11.35;;;21.00;96.00;;;;;;5117822;28;20559;-77
2023/08/25 04:29:09;;;;;;;17.75;11.85;;;21.00;96.00;;;;;;5117641;28;20047;-77
2023/08/25 04:31:35;;;;;;;21.60;12.55;;;21.00;96.00;;;;;;5117277;28;20031;-77
2023/08/25 04:34:01;;;;;;;22.65;13.20;;;21.00;96.10;;;;;;5100139;28;20052;-76
2023/08/25 04:36:26;;;;;;;20.15;12.57;;;21.00;96.20;;;;;;5117090;28;20035;-77
2023/08/25 04:38:52;;;;;;;18.92;11.98;;;21.00;96.20;;;;;;5100185;28;20034;-77
2023/08/25 04:41:18;;;;;;;19.48;12.32;;;21.00;96.20;;;;;;5135090;28;20034;-77
2023/08/25 04:43:44;;;;;;;25.00;14.48;;;21.00;96.10;;;;;;5117041;28;20038;-77
2023/08/25 04:46:10;;;;;;;21.65;13.60;;;21.00;96.00;;;;;;5135067;28;20043;-77
2023/08/25 04:48:36;;;;;;;24.08;13.65;;;21.00;96.10;;;;;;5134902;28;20026;-77
2023/08/25 04:51:02;;;;;;;19.58;13.68;;;21.00;96.10;;;;;;5116865;28;20041;-77
2023/08/25 04:53:28;;;;;;;18.55;13.18;;;21.00;96.20;;;;;;5116960;28;20039;-78
2023/08/25 04:55:53;;;;;;;25.73;14.50;;;21.00;96.20;;;;;;5099910;28;20030;-77
2023/08/25 04:58:19;;;;;;;22.35;13.13;;;20.90;96.20;;;;;;5099769;28;20054;-77
2023/08/25 05:00:50;;;;;;;21.60;13.60;;;20.90;96.30;;;;;;5116827;28;20083;-77
2023/08/25 05:03:16;;;;;;;21.70;13.40;;;20.90;96.30;;;;;;5116720;28;20024;-77
2023/08/25 05:05:41;;;;;;;21.65;14.02;;;20.80;96.40;;;;;;5098988;28;20096;-77
2023/08/25 05:08:07;;;;;;;25.40;14.25;;;20.90;96.40;;;;;;5099705;28;20032;-76
2023/08/25 05:10:33;;;;;;;24.67;14.52;;;20.80;96.50;;;;;;5099692;28;20119;-77
2023/08/25 05:12:59;;;;;;;24.25;15.40;;;20.90;96.50;;;;;;5116804;28;20038;-77
2023/08/25 05:15:25;;;;;;;29.15;16.80;;;20.90;96.50;;;;;;5116686;28;20087;-77
2023/08/25 05:17:50;;;;;;;26.70;16.73;;;20.90;96.50;;;;;;5116357;28;20050;-77
2023/08/25 05:20:18;;;;;;;30.10;17.60;;;20.90;96.60;;;;;;5116453;28;20019;-77
2023/08/25 05:22:44;;;;;;;30.38;17.67;;;20.90;96.70;;;;;;5116222;28;20019;-77
2023/08/25 05:25:09;;;;;;;28.15;18.40;;;20.90;96.70;;;;;;5116406;28;20121;-77
2023/08/25 05:27:35;;;;;;;32.45;18.08;;;20.80;96.70;;;;;;5099278;28;20065;-77
2023/08/25 05:30:01;;;;;;;26.35;17.60;;;20.90;96.70;;;;;;5099400;28;20030;-78
2023/08/25 05:32:27;;;;;;;31.13;18.42;;;20.80;96.80;;;;;;5116202;28;20081;-77
2023/08/25 05:34:52;;;;;;;28.42;17.85;;;20.90;96.80;;;;;;5098955;28;20559;-78
2023/08/25 05:37:18;;;;;;;31.13;17.13;;;20.90;96.80;;;;;;5099135;28;20043;-78
2023/08/25 05:39:43;;;;;;;28.75;16.92;;;20.90;96.80;;;;;;5134162;28;20098;-78
2023/08/25 05:42:09;;;;;;;26.25;15.82;;;20.90;96.80;;;;;;5116304;28;20493;-78
2023/08/25 05:44:35;;;;;;;25.48;15.30;;;20.90;96.70;;;;;;5116165;28;20039;-78
2023/08/25 05:47:01;;;;;;;21.42;14.48;;;20.80;96.70;;;;;;5116007;28;20032;-78
2023/08/25 05:49:26;;;;;;;23.73;15.73;;;20.80;96.80;;;;;;5099182;28;20024;-78
2023/08/25 05:51:52;;;;;;;25.65;15.85;;;20.80;96.90;;;;;;5116129;28;20032;-78
2023/08/25 05:54:18;;;;;;;28.17;15.90;;;20.80;97.00;;;;;;5099102;28;20048;-78
2023/08/25 05:56:43;;;;;;;25.38;15.02;;;20.90;97.00;;;;;;5098941;28;20027;-77
2023/08/25 05:59:09;;;;;;;26.42;14.27;;;20.80;97.10;;;;;;5115892;28;20028;-79
2023/08/25 06:01:35;;;;;;;28.48;15.52;;;20.80;97.20;;;;;;5133926;28;20024;-78
2023/08/25 06:04:01;;;;;;;26.45;15.48;;;20.80;97.20;;;;;;5098982;28;20030;-78
2023/08/25 06:06:27;;;;;;;27.50;16.13;;;20.80;97.40;;;;;;5115769;28;20020;-78
2023/08/25 06:08:54;;;;;;;26.67;15.27;;;20.70;97.50;;;;;;5098892;28;20026;-78
2023/08/25 06:11:19;;;;;;;25.95;14.85;;;20.80;98.10;;;;;;5099165;28;20061;-77
2023/08/25 06:13:45;;;;;;;26.73;15.30;;;20.80;97.60;;;;;;5099014;28;20020;-78
2023/08/25 06:16:11;;;;;;;26.77;15.40;;;20.80;97.60;;;;;;5117639;28;20497;-78
2023/08/25 06:18:36;;;;;;;26.83;14.45;;;20.80;97.70;;;;;;5119687;28;20036;-78
2023/08/25 06:21:02;;;;;;;28.75;14.27;;;20.70;97.60;;;;;;5102833;28;20028;-77
2023/08/25 06:23:28;;;;;;;26.42;14.82;;;20.70;97.70;;;;;;5137783;28;20016;-77
2023/08/25 06:25:54;;;;;;;28.50;15.93;;;20.70;97.80;;;;;;5137785;28;20046;-77
2023/08/25 06:28:20;;;;;;;29.45;16.95;;;20.80;97.80;;;;;;5102765;28;20042;-77
2023/08/25 06:30:49;;;;;;;27.83;16.13;;;20.80;97.80;;;;;;5119512;28;20028;-78
2023/08/25 06:33:14;;;;;;;28.50;16.58;;;20.80;97.80;;;;;;5119712;28;20069;-77
2023/08/25 06:35:40;;;;;;;27.50;16.30;;;20.80;97.80;;;;;;5102383;28;20050;-77
2023/08/25 06:38:06;;;;;;;30.77;16.58;;;20.80;97.80;;;;;;5102486;28;20076;-78
2023/08/25 06:40:34;;;;;;;26.88;15.57;;;20.80;97.80;;;;;;5119641;28;20024;-78
2023/08/25 06:43:01;;;;;;;32.03;17.15;;;20.80;97.80;;;;;;5119356;28;20016;-78
2023/08/25 06:45:27;;;;;;;27.55;15.63;;;20.90;97.80;;;;;;5102657;28;20020;-78
2023/08/25 06:47:54;;;;;;;28.42;16.88;;;20.90;97.70;;;;;;5102378;28;20034;-78
2023/08/25 06:50:21;;;;;;;26.50;14.93;;;20.90;97.60;;;;;;5137337;28;20045;-78
2023/08/25 06:52:46;;;;;;;27.13;15.15;;;20.90;97.50;;;;;;5102468;28;20024;-77
2023/08/25 06:55:12;;;;;;;28.33;15.57;;;21.00;97.40;;;;;;5102259;28;20036;-78
2023/08/25 06:57:37;;;;;;;23.23;14.70;;;21.00;97.40;;;;;;5102049;28;20038;-77
2023/08/25 07:00:06;;;;;;;25.10;15.48;;;21.00;97.40;;;;;;5119196;28;20032;-78
2023/08/25 07:02:31;;;;;;;27.10;14.43;;;21.00;97.30;;;;;;5102519;28;20023;-78
2023/08/25 07:04:57;;;;;;;24.60;14.25;;;20.90;97.30;;;;;;5119197;28;20032;-78
2023/08/25 07:07:27;;;;;;;23.50;13.60;;;20.90;97.30;;;;;;5101964;28;20023;-78
2023/08/25 07:09:53;;;;;;;24.83;14.40;;;21.00;97.30;;;;;;5118848;28;20103;-78
2023/08/25 07:12:19;;;;;;;22.08;13.73;;;21.00;97.40;;;;;;5118822;28;20026;-77
2023/08/25 07:14:45;;;;;;;23.10;14.65;;;20.90;97.40;;;;;;5101770;28;20027;-77
2023/08/25 07:17:11;;;;;;;25.85;14.18;;;21.00;97.50;;;;;;5118886;28;20069;-77
2023/08/25 07:19:37;;;;;;;22.83;13.80;;;21.00;97.50;;;;;;5118807;28;20028;-78
2023/08/25 07:22:03;;;;;;;23.42;13.73;;;21.00;97.40;;;;;;5118772;28;20027;-78
2023/08/25 07:24:29;;;;;;;24.83;14.40;;;20.90;97.50;;;;;;5118735;28;20019;-78
2023/08/25 07:26:54;;;;;;;24.45;13.85;;;20.90;97.60;;;;;;5101325;28;20035;-78
2023/08/25 07:29:20;;;;;;;24.95;14.20;;;20.90;97.80;;;;;;5118152;28;20041;-78
2023/08/25 07:31:46;;;;;;;23.70;14.02;;;20.90;97.80;;;;;;5118558;28;20031;-78
2023/08/25 07:34:11;;;;;;;27.75;14.88;;;20.90;97.80;;;;;;5118261;28;20061;-78
2023/08/25 07:36:38;;;;;;;26.15;13.85;;;20.90;97.80;;;;;;5101441;28;20046;-77
2023/08/25 07:39:04;;;;;;;23.35;14.88;;;20.90;97.80;;;;;;5118351;28;20044;-78
2023/08/25 07:41:30;;;;;;;25.20;14.52;;;20.90;97.80;;;;;;5118275;28;20030;-77
2023/08/25 07:43:56;;;;;;;26.13;15.18;;;20.90;97.90;;;;;;5101397;28;20077;-77
2023/08/25 07:46:22;;;;;;;25.20;14.52;;;20.90;98.00;;;;;;5118166;28;20024;-76
2023/08/25 07:48:47;;;;;;;23.73;13.52;;;20.90;97.90;;;;;;5118178;28;20458;-76
2023/08/25 07:51:13;;;;;;;23.00;14.15;;;21.00;97.80;;;;;;5101204;28;20024;-76
2023/08/25 07:53:39;;;;;;;22.73;13.63;;;21.10;97.80;;;;;;5118054;28;20018;-76
2023/08/25 07:56:05;;;;;;;22.55;13.30;;;21.10;97.70;;;;;;5117921;28;20130;-77
2023/08/25 07:58:31;;;;;;;20.55;12.50;;;21.10;97.50;;;;;;5117806;28;20049;-77
2023/08/25 08:00:56;;;;;;;21.45;13.10;;;21.10;97.40;;;;;;5100973;28;20023;-77
2023/08/25 08:03:22;;;;;;;22.77;14.30;;;21.10;97.40;;;;;;5136036;28;20028;-77
2023/08/25 08:05:48;;;;;;;25.52;14.73;;;20.90;97.50;;;;;;5117940;28;20062;-76
2023/08/25 08:08:13;;;;;;;27.30;15.43;;;20.90;97.80;;;;;;5117755;28;20039;-76
2023/08/25 08:10:39;;;;;;;24.98;13.45;;;20.80;97.90;;;;;;5117678;28;20023;-76
2023/08/25 08:13:05;;;;;;;27.75;15.65;;;20.60;98.60;;;;;;5117640;28;20026;-76
2023/08/25 08:15:31;;;;;;;24.70;13.68;;;20.50;98.80;;;;;;5100602;28;20103;-76
2023/08/25 08:17:58;;;;;;;25.42;13.65;;;20.50;98.90;;;;;;5135570;28;20039;-76
2023/08/25 08:20:24;;;;;;;22.00;13.60;;;20.50;99.10;;;;;;5117879;28;20024;-76
2023/08/25 08:22:50;;;;;;;22.17;12.88;;;20.50;99.00;;;;;;5117452;28;20051;-76
2023/08/25 08:25:16;;;;;;;21.58;12.45;;;20.50;99.10;;;;;;5135427;28;20016;-76
2023/08/25 08:27:42;;;;;;;20.08;11.98;;;20.50;98.90;;;;;;5135347;28;20066;-77
2023/08/25 08:30:09;;;;;;;17.83;11.05;;;20.50;99.00;;;;;;5117423;28;20035;-76
2023/08/25 08:32:36;;;;;;;20.13;11.68;;;20.50;98.90;;;;;;5117166;28;20034;-76
2023/08/25 08:35:09;;;;;;;19.98;11.55;;;20.60;99.00;;;;;;5134999;28;20509;-76
2023/08/25 08:37:36;;;;;;;15.73;10.70;;;20.60;98.90;;;;;;5135272;28;20047;-77
2023/08/25 08:40:05;;;;;;;18.70;10.95;;;20.60;98.80;;;;;;5134111;28;20023;-76
2023/08/25 08:42:33;;;;;;;16.08;9.88;;;20.60;98.80;;;;;;5135071;28;20081;-76
2023/08/25 08:45:06;;;;;;;14.13;10.02;;;20.60;98.80;;;;;;5100016;28;20019;-77
2023/08/25 08:47:34;;;;;;;14.13;9.15;;;20.70;98.70;;;;;;5117554;28;20057;-76
2023/08/25 08:50:00;;;;;;;14.77;9.10;;;20.70;98.70;;;;;;5135012;28;20028;-77
2023/08/25 08:52:27;;;;;;;14.82;9.80;;;20.60;98.50;;;;;;5116851;28;20039;-76
2023/08/25 08:54:53;;;;;;;14.63;9.88;;;20.60;98.50;;;;;;5116889;28;20038;-76
2023/08/25 08:57:19;;;;;;;12.10;8.85;;;20.60;98.60;;;;;;5134733;28;20031;-76
2023/08/25 08:59:44;;;;;;;12.27;8.43;;;20.60;98.50;;;;;;5134765;28;20031;-76
2023/08/25 09:02:13;;;;;;;13.23;8.82;;;20.60;98.50;;;;;;5134769;28;20045;-76
2023/08/25 09:04:40;;;;;;;11.20;8.38;;;20.60;98.40;;;;;;5134657;28;20024;-76
2023/08/25 09:07:07;;;;;;;12.60;8.48;;;20.50;98.40;;;;;;5134678;28;20028;-76
2023/08/25 09:09:32;;;;;;;12.48;8.48;;;20.50;98.40;;;;;;5134560;28;20087;-76
2023/08/25 09:11:58;;;;;;;12.07;8.77;;;20.50;98.50;;;;;;5134555;28;20035;-76
2023/08/25 09:14:25;;;;;;;13.02;8.63;;;20.50;98.60;;;;;;5099603;28;20486;-76
2023/08/25 09:17:02;;;;;;;11.57;8.10;;;20.50;98.50;;;;;;5134410;28;20073;-75
2023/08/25 09:19:31;;;;;;;15.70;9.43;;;20.50;98.60;;;;;;5116581;28;20038;-75
2023/08/25 09:21:57;;;;;;;12.38;8.43;;;20.40;98.60;;;;;;5082845;28;20049;-76
2023/08/25 09:24:23;;;;;;;12.30;8.50;;;20.40;98.80;;;;;;5134345;28;20024;-75
2023/08/25 09:26:50;;;;;;;15.60;9.38;;;20.40;98.80;;;;;;5134369;28;20059;-76
2023/08/25 09:29:16;;;;;;;15.27;9.43;;;20.40;98.70;;;;;;5116377;28;20019;-76
2023/08/25 09:31:43;;;;;;;13.85;8.82;;;20.40;98.70;;;;;;5134251;28;20032;-75
2023/08/25 09:34:13;;;;;;;18.10;10.30;;;20.40;98.70;;;;;;5115932;28;20382;-76
2023/08/25 09:36:55;;;;;;;12.88;9.18;;;20.40;98.80;;;;;;5134109;28;20124;-76
2023/08/25 09:39:22;;;;;;;15.52;9.75;;;20.50;98.70;;;;;;5134099;28;20028;-77
2023/08/25 09:41:49;;;;;;;14.63;9.57;;;20.50;98.90;;;;;;5099140;28;20027;-76
2023/08/25 09:44:16;;;;;;;12.65;9.10;;;20.50;98.80;;;;;;5134025;28;20023;-76
2023/08/25 09:46:43;;;;;;;13.32;8.98;;;20.60;98.80;;;;;;5099224;28;20030;-76
2023/08/25 09:49:10;;;;;;;13.25;8.70;;;20.60;98.80;;;;;;5134025;28;20024;-76
2023/08/25 09:51:41;;;;;;;13.43;9.07;;;20.70;98.80;;;;;;5098848;28;20023;-76
2023/08/25 09:54:12;;;;;;;12.57;8.85;;;20.70;98.70;;;;;;5116003;28;20028;-76
2023/08/25 09:56:41;;;;;;;13.93;9.35;;;20.70;98.60;;;;;;5115684;28;20035;-76
2023/08/25 09:59:09;;;;;;;13.68;9.05;;;20.70;98.50;;;;;;5116145;28;20485;-76
2023/08/25 10:01:35;;;;;;;15.10;9.43;;;20.70;98.60;;;;;;5115946;28;20088;-76
2023/08/25 10:04:04;;;;;;;13.05;9.18;;;20.70;98.60;;;;;;5133866;28;20049;-76
2023/08/25 10:06:32;;;;;;;12.95;9.63;;;20.70;98.70;;;;;;5115868;28;20028;-76
2023/08/25 10:08:58;;;;;;;12.45;9.27;;;20.70;98.80;;;;;;5133964;28;20015;-76
2023/08/25 10:11:28;;;;;;;13.05;9.75;;;20.70;98.90;;;;;;5115816;28;20034;-76
2023/08/25 10:13:56;;;;;;;13.90;9.60;;;20.80;99.30;;;;;;5115742;28;20035;-75
2023/08/25 10:16:27;;;;;;;14.13;9.60;;;20.80;98.90;;;;;;5098899;28;20027;-76
2023/08/25 10:18:58;;;;;;;13.45;9.27;;;20.80;98.90;;;;;;5133826;28;20024;-76
2023/08/25 10:21:25;;;;;;;11.68;8.68;;;20.80;98.80;;;;;;5115697;28;20048;-76
2023/08/25 10:23:54;;;;;;;13.20;9.07;;;20.80;98.70;;;;;;5098968;28;20041;-75
2023/08/25 10:26:22;;;;;;;13.77;9.07;;;20.80;98.60;;;;;;5115688;28;20019;-76
2023/08/25 10:28:48;;;;;;;13.50;9.48;;;20.90;98.60;;;;;;5099032;28;20062;-76
2023/08/25 10:31:14;;;;;;;15.77;10.63;;;20.80;98.60;;;;;;5115682;28;20031;-76
2023/08/25 10:33:47;;;;;;;15.63;10.00;;;20.90;98.60;;;;;;5133508;28;20076;-76
2023/08/25 10:36:18;;;;;;;15.27;11.05;;;20.90;98.60;;;;;;5133466;28;20103;-76
2023/08/25 10:38:59;;;;;;;16.95;11.25;;;20.90;98.70;;;;;;5098829;28;20085;-76
2023/08/25 10:41:25;;;;;;;18.02;11.20;;;20.80;98.80;;;;;;5133584;28;20020;-76
2023/08/25 10:43:52;;;;;;;16.67;11.65;;;20.80;98.90;;;;;;5115512;28;20023;-76
2023/08/25 10:46:23;;;;;;;19.95;12.75;;;20.80;98.90;;;;;;5115473;28;20114;-76
2023/08/25 10:49:02;;;;;;;17.73;13.07;;;20.70;99.10;;;;;;5133458;28;20023;-76
2023/08/25 10:51:28;;;;;;;20.73;13.50;;;20.70;99.00;;;;;;5133485;28;20083;-76
2023/08/25 10:53:54;;;;;;;22.02;14.38;;;20.70;99.10;;;;;;5115358;28;20399;-76
2023/08/25 10:56:22;;;;;;;22.77;13.75;;;20.70;99.10;;;;;;5115314;28;20393;-76
2023/08/25 10:59:02;;;;;;;20.58;13.82;;;20.70;99.20;;;;;;5115254;28;20034;-76
2023/08/25 11:01:52;;;;;;;19.88;13.68;;;20.70;99.30;;;;;;5133415;28;20028;-76
2023/08/25 11:04:29;;;;;;;21.90;13.80;;;20.70;99.20;;;;;;5118555;28;20012;-76
2023/08/25 11:06:59;;;;;;;17.55;11.80;;;20.70;99.30;;;;;;5137053;28;20053;-75
2023/08/25 11:09:25;;;;;;;20.08;12.32;;;20.70;99.30;;;;;;5119183;28;20019;-76
2023/08/25 11:12:08;;;;;;;17.92;11.90;;;20.60;99.20;;;;;;5137050;28;20028;-76
2023/08/25 11:14:35;;;;;;;17.05;11.88;;;20.60;99.30;;;;;;5101989;28;20024;-75
2023/08/25 11:17:03;;;;;;;16.00;11.20;;;20.60;99.30;;;;;;5118547;28;20031;-75
2023/08/25 11:19:32;;;;;;;16.13;10.68;;;20.60;99.30;;;;;;5118673;28;20019;-75
2023/08/25 11:22:11;;;;;;;17.25;11.85;;;20.50;99.30;;;;;;5136683;28;20441;-75
2023/08/25 11:24:37;;;;;;;14.10;9.68;;;20.50;99.40;;;;;;5118669;28;20015;-75
2023/08/25 11:27:10;;;;;;;13.10;9.30;;;20.40;99.40;;;;;;5101697;28;20044;-75
2023/08/25 11:29:36;;;;;;;13.52;10.48;;;20.40;99.50;;;;;;5136621;28;20062;-76
2023/08/25 11:32:02;;;;;;;18.05;10.55;;;20.40;99.80;;;;;;5136480;28;20034;-76
2023/08/25 11:34:32;;;;;;;16.70;11.30;;;20.40;99.70;;;;;;5136264;28;20035;-76
2023/08/25 11:36:58;;;;;;;17.33;11.85;;;20.50;99.70;;;;;;5136458;28;20047;-77
2023/08/25 11:39:24;;;;;;;19.15;11.50;;;20.50;99.80;;;;;;5118465;28;20028;-75
2023/08/25 11:41:57;;;;;;;20.52;13.27;;;20.50;99.90;;;;;;5136336;28;20030;-75
2023/08/25 11:44:23;;;;;;;17.45;11.30;;;20.60;99.90;;;;;;5118317;28;20050;-75
2023/08/25 11:46:50;;;;;;;17.45;11.90;;;20.70;99.90;;;;;;5118317;28;20087;-75
2023/08/25 11:49:17;;;;;;;17.35;11.43;;;20.70;99.90;;;;;;5136133;28;20027;-75
2023/08/25 11:51:44;;;;;;;18.45;11.85;;;20.80;99.90;;;;;;5118100;28;20497;-76
2023/08/25 11:54:10;;;;;;;21.33;12.43;;;20.90;99.90;;;;;;5101363;28;20051;-75
2023/08/25 11:56:36;;;;;;;21.20;13.02;;;20.90;99.90;;;;;;5135971;28;20020;-74
2023/08/25 11:59:02;;;;;;;24.13;14.25;;;20.90;99.60;;;;;;5118064;28;20045;-74
2023/08/25 12:01:32;;;;;;;24.65;14.85;;;20.90;99.60;;;;;;5117907;28;20030;-74
2023/08/25 12:04:02;;;;;;;25.77;14.68;;;21.00;99.80;;;;;;5135895;28;20036;-75
2023/08/25 12:06:27;;;;;;;22.40;13.50;;;21.00;99.70;;;;;;5135807;28;20020;-74
2023/08/25 12:08:53;;;;;;;23.48;14.18;;;20.90;99.60;;;;;;5135767;28;20049;-74
2023/08/25 12:11:19;;;;;;;23.83;14.35;;;21.00;99.60;;;;;;5117640;28;20043;-75
2023/08/25 12:13:47;;;;;;;21.02;13.07;;;20.90;99.50;;;;;;5135456;28;20061;-75
2023/08/25 12:16:13;;;;;;;20.42;12.98;;;20.90;99.70;;;;;;5135647;28;20027;-74
2023/08/25 12:18:42;;;;;;;23.55;13.70;;;20.80;99.70;;;;;;5135710;28;20035;-77
2023/08/25 12:21:08;;;;;;;25.67;15.10;;;20.90;99.70;;;;;;5118047;28;20023;-78
2023/08/25 12:23:40;;;;;;;22.05;13.75;;;20.90;99.50;;;;;;5135661;28;20027;-77
2023/08/25 12:26:09;;;;;;;24.48;14.23;;;20.90;99.60;;;;;;5117541;28;20050;-77
2023/08/25 12:28:35;;;;;;;22.52;13.27;;;20.90;99.70;;;;;;5135476;28;20039;-77
2023/08/25 12:31:01;;;;;;;22.38;13.27;;;20.90;99.80;;;;;;5135407;28;20031;-77
2023/08/25 12:33:31;;;;;;;23.40;11.98;;;20.90;99.70;;;;;;5135325;28;20016;-77